sensor_id;sensor_type;location;lat;lon;timestamp;P1;durP1;ratioP1;P2;durP2;ratioP2
40955;SDS011;26687;48.254;11.454;2023-12-07T00:01:08;8.25;;;7.45;;
40955;SDS011;26687;48.254;11.454;2023-12-07T00:04:09;8.43;;;7.68;;
40955;SDS011;26687;48.254;11.454;2023-12-07T00:07:09;8.70;;;7.90;;
40955;SDS011;26687;48.254;11.454;2023-12-07T00:10:09;8.60;;;7.80;;
40955;SDS011;26687;48.254;11.454;2023-12-07T00:13:09;9.68;;;8.77;;
40955;SDS011;26687;48.254;11.454;2023-12-07T00:16:09;9.30;;;8.45;;
40955;SDS011;26687;48.254;11.454;2023-12-07T00:19:10;8.88;;;8.07;;
40955;SDS011;26687;48.254;11.454;2023-12-07T00:22:10;10.00;;;9.03;;
40955;SDS011;26687;48.254;11.454;2023-12-07T00:25:10;9.43;;;8.57;;
40955;SDS011;26687;48.254;11.454;2023-12-07T00:28:10;9.73;;;8.82;;
40955;SDS011;26687;48.254;11.454;2023-12-07T00:31:10;10.93;;;9.80;;
40955;SDS011;26687;48.254;11.454;2023-12-07T00:34:11;10.80;;;9.75;;
40955;SDS011;26687;48.254;11.454;2023-12-07T00:37:11;9.68;;;8.75;;
40955;SDS011;26687;48.254;11.454;2023-12-07T00:40:11;10.37;;;9.00;;
40955;SDS011;26687;48.254;11.454;2023-12-07T00:43:12;9.80;;;8.90;;
40955;SDS011;26687;48.254;11.454;2023-12-07T00:46:12;10.05;;;9.05;;
40955;SDS011;26687;48.254;11.454;2023-12-07T00:49:12;9.85;;;8.93;;
40955;SDS011;26687;48.254;11.454;2023-12-07T00:52:13;9.70;;;8.80;;
40955;SDS011;26687;48.254;11.454;2023-12-07T00:55:13;9.70;;;8.70;;
40955;SDS011;26687;48.254;11.454;2023-12-07T00:58:14;10.60;;;9.57;;
40955;SDS011;26687;48.254;11.454;2023-12-07T01:01:14;9.57;;;8.67;;
40955;SDS011;26687;48.254;11.454;2023-12-07T01:04:14;9.65;;;8.75;;
40955;SDS011;26687;48.254;11.454;2023-12-07T01:07:14;10.07;;;9.10;;
40955;SDS011;26687;48.254;11.454;2023-12-07T01:10:14;9.35;;;8.45;;
40955;SDS011;26687;48.254;11.454;2023-12-07T01:13:15;10.13;;;9.13;;
40955;SDS011;26687;48.254;11.454;2023-12-07T01:16:15;10.67;;;9.67;;
40955;SDS011;26687;48.254;11.454;2023-12-07T01:19:15;9.98;;;9.00;;
40955;SDS011;26687;48.254;11.454;2023-12-07T01:22:15;10.15;;;9.25;;
40955;SDS011;26687;48.254;11.454;2023-12-07T01:25:15;9.40;;;8.43;;
40955;SDS011;26687;48.254;11.454;2023-12-07T01:28:21;9.65;;;8.75;;
40955;SDS011;26687;48.254;11.454;2023-12-07T01:31:21;10.10;;;9.20;;
40955;SDS011;26687;48.254;11.454;2023-12-07T01:34:21;10.23;;;9.25;;
40955;SDS011;26687;48.254;11.454;2023-12-07T01:37:21;10.23;;;9.10;;
40955;SDS011;26687;48.254;11.454;2023-12-07T01:40:21;10.40;;;9.48;;
40955;SDS011;26687;48.254;11.454;2023-12-07T01:43:22;10.27;;;9.27;;
40955;SDS011;26687;48.254;11.454;2023-12-07T01:46:22;10.27;;;9.38;;
40955;SDS011;26687;48.254;11.454;2023-12-07T01:49:23;10.20;;;9.25;;
40955;SDS011;26687;48.254;11.454;2023-12-07T01:52:23;10.00;;;9.10;;
40955;SDS011;26687;48.254;11.454;2023-12-07T01:55:25;10.45;;;9.50;;
40955;SDS011;26687;48.254;11.454;2023-12-07T01:58:26;9.95;;;8.95;;
40955;SDS011;26687;48.254;11.454;2023-12-07T02:01:27;10.50;;;9.50;;
40955;SDS011;26687;48.254;11.454;2023-12-07T02:04:27;11.00;;;9.98;;
40955;SDS011;26687;48.254;11.454;2023-12-07T02:07:27;10.80;;;9.73;;
40955;SDS011;26687;48.254;11.454;2023-12-07T02:10:28;10.77;;;9.73;;
40955;SDS011;26687;48.254;11.454;2023-12-07T02:13:28;10.80;;;9.88;;
40955;SDS011;26687;48.254;11.454;2023-12-07T02:16:48;9.97;;;9.07;;
40955;SDS011;26687;48.254;11.454;2023-12-07T02:19:52;10.27;;;9.27;;
40955;SDS011;26687;48.254;11.454;2023-12-07T02:22:54;10.40;;;9.50;;
40955;SDS011;26687;48.254;11.454;2023-12-07T02:25:56;9.93;;;8.93;;
40955;SDS011;26687;48.254;11.454;2023-12-07T02:29:00;9.35;;;8.45;;
40955;SDS011;26687;48.254;11.454;2023-12-07T02:32:00;10.20;;;9.30;;
40955;SDS011;26687;48.254;11.454;2023-12-07T02:35:00;10.10;;;9.20;;
40955;SDS011;26687;48.254;11.454;2023-12-07T02:38:01;9.52;;;8.73;;
40955;SDS011;26687;48.254;11.454;2023-12-07T02:41:01;10.88;;;9.98;;
40955;SDS011;26687;48.254;11.454;2023-12-07T02:44:02;10.18;;;9.18;;
40955;SDS011;26687;48.254;11.454;2023-12-07T02:47:03;10.40;;;9.50;;
40955;SDS011;26687;48.254;11.454;2023-12-07T02:50:04;10.10;;;9.10;;
40955;SDS011;26687;48.254;11.454;2023-12-07T02:53:05;10.95;;;9.95;;
40955;SDS011;26687;48.254;11.454;2023-12-07T02:56:06;10.20;;;9.30;;
40955;SDS011;26687;48.254;11.454;2023-12-07T02:59:06;10.70;;;9.70;;
40955;SDS011;26687;48.254;11.454;2023-12-07T03:02:06;10.82;;;9.80;;
40955;SDS011;26687;48.254;11.454;2023-12-07T03:05:06;9.85;;;9.05;;
40955;SDS011;26687;48.254;11.454;2023-12-07T03:08:07;10.70;;;9.73;;
40955;SDS011;26687;48.254;11.454;2023-12-07T03:11:07;10.75;;;9.75;;
40955;SDS011;26687;48.254;11.454;2023-12-07T03:14:07;10.37;;;9.37;;
40955;SDS011;26687;48.254;11.454;2023-12-07T03:17:07;10.43;;;9.53;;
40955;SDS011;26687;48.254;11.454;2023-12-07T03:20:07;10.98;;;9.98;;
40955;SDS011;26687;48.254;11.454;2023-12-07T03:23:08;11.07;;;9.98;;
40955;SDS011;26687;48.254;11.454;2023-12-07T03:26:08;10.67;;;9.63;;
40955;SDS011;26687;48.254;11.454;2023-12-07T03:29:08;9.93;;;9.02;;
40955;SDS011;26687;48.254;11.454;2023-12-07T03:32:09;10.43;;;9.52;;
40955;SDS011;26687;48.254;11.454;2023-12-07T03:35:09;10.97;;;9.97;;
40955;SDS011;26687;48.254;11.454;2023-12-07T03:38:09;9.88;;;8.98;;
40955;SDS011;26687;48.254;11.454;2023-12-07T03:41:09;10.50;;;9.50;;
40955;SDS011;26687;48.254;11.454;2023-12-07T03:44:09;9.60;;;8.65;;
40955;SDS011;26687;48.254;11.454;2023-12-07T03:47:09;10.50;;;9.50;;
40955;SDS011;26687;48.254;11.454;2023-12-07T03:50:10;11.43;;;10.33;;
40955;SDS011;26687;48.254;11.454;2023-12-07T03:53:10;10.37;;;9.33;;
40955;SDS011;26687;48.254;11.454;2023-12-07T03:56:10;9.87;;;8.97;;
40955;SDS011;26687;48.254;11.454;2023-12-07T03:59:10;10.50;;;9.50;;
40955;SDS011;26687;48.254;11.454;2023-12-07T04:02:11;11.18;;;10.18;;
40955;SDS011;26687;48.254;11.454;2023-12-07T04:05:11;10.98;;;9.98;;
40955;SDS011;26687;48.254;11.454;2023-12-07T04:08:12;11.23;;;10.15;;
40955;SDS011;26687;48.254;11.454;2023-12-07T04:11:13;10.55;;;9.55;;
40955;SDS011;26687;48.254;11.454;2023-12-07T04:14:13;10.02;;;9.13;;
40955;SDS011;26687;48.254;11.454;2023-12-07T04:17:13;10.35;;;9.35;;
40955;SDS011;26687;48.254;11.454;2023-12-07T04:20:13;9.57;;;8.70;;
40955;SDS011;26687;48.254;11.454;2023-12-07T04:23:13;10.13;;;9.18;;
40955;SDS011;26687;48.254;11.454;2023-12-07T04:26:13;10.18;;;9.18;;
40955;SDS011;26687;48.254;11.454;2023-12-07T04:29:15;10.02;;;9.13;;
40955;SDS011;26687;48.254;11.454;2023-12-07T04:32:15;9.80;;;8.90;;
40955;SDS011;26687;48.254;11.454;2023-12-07T04:35:15;9.93;;;9.02;;
40955;SDS011;26687;48.254;11.454;2023-12-07T04:38:16;9.70;;;8.80;;
40955;SDS011;26687;48.254;11.454;2023-12-07T04:41:16;9.53;;;8.67;;
40955;SDS011;26687;48.254;11.454;2023-12-07T04:44:16;10.00;;;9.00;;
40955;SDS011;26687;48.254;11.454;2023-12-07T04:47:17;9.48;;;8.57;;
40955;SDS011;26687;48.254;11.454;2023-12-07T04:50:17;9.15;;;8.35;;
40955;SDS011;26687;48.254;11.454;2023-12-07T04:53:17;9.57;;;8.68;;
40955;SDS011;26687;48.254;11.454;2023-12-07T04:56:17;9.77;;;8.88;;
40955;SDS011;26687;48.254;11.454;2023-12-07T04:59:17;9.57;;;8.60;;
40955;SDS011;26687;48.254;11.454;2023-12-07T05:02:17;9.15;;;8.27;;
40955;SDS011;26687;48.254;11.454;2023-12-07T05:05:18;9.40;;;8.60;;
40955;SDS011;26687;48.254;11.454;2023-12-07T05:08:18;9.00;;;7.63;;
40955;SDS011;26687;48.254;11.454;2023-12-07T05:11:18;9.20;;;8.30;;
40955;SDS011;26687;48.254;11.454;2023-12-07T05:14:18;8.98;;;8.18;;
40955;SDS011;26687;48.254;11.454;2023-12-07T05:17:18;9.13;;;8.32;;
40955;SDS011;26687;48.254;11.454;2023-12-07T05:20:19;9.30;;;8.40;;
40955;SDS011;26687;48.254;11.454;2023-12-07T05:23:22;9.50;;;8.57;;
40955;SDS011;26687;48.254;11.454;2023-12-07T05:26:22;10.10;;;9.10;;
40955;SDS011;26687;48.254;11.454;2023-12-07T05:29:22;9.57;;;8.68;;
40955;SDS011;26687;48.254;11.454;2023-12-07T05:32:23;9.50;;;8.60;;
40955;SDS011;26687;48.254;11.454;2023-12-07T05:35:23;9.40;;;8.50;;
40955;SDS011;26687;48.254;11.454;2023-12-07T05:38:23;9.50;;;8.60;;
40955;SDS011;26687;48.254;11.454;2023-12-07T05:41:24;10.07;;;9.07;;
40955;SDS011;26687;48.254;11.454;2023-12-07T05:44:25;10.43;;;9.32;;
40955;SDS011;26687;48.254;11.454;2023-12-07T05:47:25;8.50;;;7.80;;
40955;SDS011;26687;48.254;11.454;2023-12-07T05:50:26;9.60;;;8.70;;
40955;SDS011;26687;48.254;11.454;2023-12-07T05:53:26;9.73;;;8.83;;
40955;SDS011;26687;48.254;11.454;2023-12-07T05:56:26;10.68;;;9.68;;
40955;SDS011;26687;48.254;11.454;2023-12-07T05:59:27;10.23;;;9.25;;
40955;SDS011;26687;48.254;11.454;2023-12-07T06:02:27;12.70;;;9.32;;
40955;SDS011;26687;48.254;11.454;2023-12-07T06:05:27;10.37;;;9.37;;
40955;SDS011;26687;48.254;11.454;2023-12-07T06:08:27;9.88;;;8.82;;
40955;SDS011;26687;48.254;11.454;2023-12-07T06:11:28;10.30;;;9.30;;
40955;SDS011;26687;48.254;11.454;2023-12-07T06:14:28;10.05;;;9.05;;
40955;SDS011;26687;48.254;11.454;2023-12-07T06:17:28;10.03;;;9.03;;
40955;SDS011;26687;48.254;11.454;2023-12-07T06:20:28;9.83;;;8.93;;
40955;SDS011;26687;48.254;11.454;2023-12-07T06:23:28;9.88;;;8.98;;
40955;SDS011;26687;48.254;11.454;2023-12-07T06:26:28;10.45;;;9.45;;
40955;SDS011;26687;48.254;11.454;2023-12-07T06:29:29;10.17;;;9.20;;
40955;SDS011;26687;48.254;11.454;2023-12-07T06:32:29;9.88;;;8.85;;
40955;SDS011;26687;48.254;11.454;2023-12-07T06:35:29;10.18;;;9.18;;
40955;SDS011;26687;48.254;11.454;2023-12-07T06:38:30;10.13;;;9.13;;
40955;SDS011;26687;48.254;11.454;2023-12-07T06:41:30;9.90;;;8.90;;
40955;SDS011;26687;48.254;11.454;2023-12-07T06:44:31;11.63;;;9.87;;
40955;SDS011;26687;48.254;11.454;2023-12-07T06:47:31;9.88;;;8.98;;
40955;SDS011;26687;48.254;11.454;2023-12-07T06:50:31;10.52;;;8.85;;
40955;SDS011;26687;48.254;11.454;2023-12-07T06:53:31;9.90;;;8.90;;
40955;SDS011;26687;48.254;11.454;2023-12-07T06:56:32;10.38;;;9.27;;
40955;SDS011;26687;48.254;11.454;2023-12-07T06:59:35;10.02;;;9.02;;
40955;SDS011;26687;48.254;11.454;2023-12-07T07:02:35;9.85;;;8.85;;
40955;SDS011;26687;48.254;11.454;2023-12-07T07:05:35;10.65;;;9.55;;
40955;SDS011;26687;48.254;11.454;2023-12-07T07:08:35;11.30;;;9.55;;
40955;SDS011;26687;48.254;11.454;2023-12-07T07:11:35;10.70;;;9.70;;
40955;SDS011;26687;48.254;11.454;2023-12-07T07:14:37;10.32;;;9.40;;
40955;SDS011;26687;48.254;11.454;2023-12-07T07:17:37;10.70;;;9.52;;
40955;SDS011;26687;48.254;11.454;2023-12-07T07:20:37;11.32;;;10.23;;
40955;SDS011;26687;48.254;11.454;2023-12-07T07:23:37;10.52;;;9.52;;
40955;SDS011;26687;48.254;11.454;2023-12-07T07:26:38;11.50;;;10.40;;
40955;SDS011;26687;48.254;11.454;2023-12-07T07:29:38;11.45;;;10.35;;
40955;SDS011;26687;48.254;11.454;2023-12-07T07:32:38;11.23;;;10.13;;
40955;SDS011;26687;48.254;11.454;2023-12-07T07:35:39;11.35;;;10.25;;
40955;SDS011;26687;48.254;11.454;2023-12-07T07:38:39;12.23;;;11.03;;
40955;SDS011;26687;48.254;11.454;2023-12-07T07:41:39;12.95;;;11.55;;
40955;SDS011;26687;48.254;11.454;2023-12-07T07:44:39;12.82;;;11.18;;
40955;SDS011;26687;48.254;11.454;2023-12-07T07:47:40;12.32;;;11.13;;
40955;SDS011;26687;48.254;11.454;2023-12-07T07:50:40;12.23;;;11.02;;
40955;SDS011;26687;48.254;11.454;2023-12-07T07:53:40;12.35;;;10.00;;
40955;SDS011;26687;48.254;11.454;2023-12-07T07:56:40;11.63;;;10.52;;
40955;SDS011;26687;48.254;11.454;2023-12-07T07:59:40;12.10;;;10.90;;
40955;SDS011;26687;48.254;11.454;2023-12-07T08:02:41;19.20;;;17.15;;
40955;SDS011;26687;48.254;11.454;2023-12-07T08:05:41;17.73;;;15.85;;
40955;SDS011;26687;48.254;11.454;2023-12-07T08:08:42;14.77;;;12.13;;
40955;SDS011;26687;48.254;11.454;2023-12-07T08:11:42;13.67;;;12.27;;
40955;SDS011;26687;48.254;11.454;2023-12-07T08:14:42;11.50;;;10.40;;
40955;SDS011;26687;48.254;11.454;2023-12-07T08:17:43;12.27;;;11.07;;
40955;SDS011;26687;48.254;11.454;2023-12-07T08:20:44;11.73;;;9.83;;
40955;SDS011;26687;48.254;11.454;2023-12-07T08:23:44;11.47;;;10.37;;
40955;SDS011;26687;48.254;11.454;2023-12-07T08:26:44;11.68;;;10.57;;
40955;SDS011;26687;48.254;11.454;2023-12-07T08:29:44;11.17;;;9.93;;
40955;SDS011;26687;48.254;11.454;2023-12-07T08:32:44;10.93;;;9.90;;
40955;SDS011;26687;48.254;11.454;2023-12-07T08:35:44;11.73;;;10.52;;
40955;SDS011;26687;48.254;11.454;2023-12-07T08:38:45;11.68;;;10.55;;
40955;SDS011;26687;48.254;11.454;2023-12-07T08:41:45;11.40;;;10.27;;
40955;SDS011;26687;48.254;11.454;2023-12-07T08:44:45;11.27;;;9.63;;
40955;SDS011;26687;48.254;11.454;2023-12-07T08:47:45;10.38;;;9.23;;
40955;SDS011;26687;48.254;11.454;2023-12-07T08:50:45;10.23;;;9.23;;
40955;SDS011;26687;48.254;11.454;2023-12-07T08:53:46;11.82;;;10.63;;
40955;SDS011;26687;48.254;11.454;2023-12-07T08:56:46;17.97;;;12.97;;
40955;SDS011;26687;48.254;11.454;2023-12-07T08:59:46;27.88;;;18.95;;
40955;SDS011;26687;48.254;11.454;2023-12-07T09:02:46;20.73;;;16.07;;
40955;SDS011;26687;48.254;11.454;2023-12-07T09:05:46;19.10;;;14.63;;
40955;SDS011;26687;48.254;11.454;2023-12-07T09:08:47;17.50;;;14.13;;
40955;SDS011;26687;48.254;11.454;2023-12-07T09:11:47;15.13;;;12.10;;
40955;SDS011;26687;48.254;11.454;2023-12-07T09:14:47;11.10;;;10.00;;
40955;SDS011;26687;48.254;11.454;2023-12-07T09:17:47;10.07;;;9.07;;
40955;SDS011;26687;48.254;11.454;2023-12-07T09:20:48;9.60;;;8.68;;
40955;SDS011;26687;48.254;11.454;2023-12-07T09:23:49;10.07;;;9.18;;
40955;SDS011;26687;48.254;11.454;2023-12-07T09:26:49;10.40;;;9.40;;
40955;SDS011;26687;48.254;11.454;2023-12-07T09:29:49;10.10;;;9.20;;
40955;SDS011;26687;48.254;11.454;2023-12-07T09:32:51;11.13;;;9.50;;
40955;SDS011;26687;48.254;11.454;2023-12-07T09:35:51;9.13;;;8.30;;
40955;SDS011;26687;48.254;11.454;2023-12-07T09:38:51;9.35;;;8.45;;
40955;SDS011;26687;48.254;11.454;2023-12-07T09:41:51;9.50;;;8.52;;
40955;SDS011;26687;48.254;11.454;2023-12-07T09:44:51;9.60;;;8.60;;
40955;SDS011;26687;48.254;11.454;2023-12-07T09:47:52;9.50;;;8.63;;
40955;SDS011;26687;48.254;11.454;2023-12-07T09:50:53;8.88;;;7.97;;
40955;SDS011;26687;48.254;11.454;2023-12-07T09:53:55;9.43;;;7.87;;
40955;SDS011;26687;48.254;11.454;2023-12-07T09:56:55;8.52;;;7.63;;
40955;SDS011;26687;48.254;11.454;2023-12-07T09:59:57;8.68;;;7.53;;
40955;SDS011;26687;48.254;11.454;2023-12-07T10:02:57;8.50;;;7.70;;
40955;SDS011;26687;48.254;11.454;2023-12-07T10:05:58;7.43;;;6.73;;
40955;SDS011;26687;48.254;11.454;2023-12-07T10:09:03;7.63;;;6.93;;
40955;SDS011;26687;48.254;11.454;2023-12-07T10:12:04;7.25;;;6.65;;
40955;SDS011;26687;48.254;11.454;2023-12-07T10:15:14;8.18;;;6.80;;
40955;SDS011;26687;48.254;11.454;2023-12-07T10:18:15;7.18;;;6.47;;
40955;SDS011;26687;48.254;11.454;2023-12-07T10:21:32;7.68;;;6.85;;
40955;SDS011;26687;48.254;11.454;2023-12-07T10:24:32;7.97;;;7.18;;
40955;SDS011;26687;48.254;11.454;2023-12-07T10:27:32;8.43;;;6.50;;
40955;SDS011;26687;48.254;11.454;2023-12-07T10:30:33;7.32;;;6.68;;
40955;SDS011;26687;48.254;11.454;2023-12-07T10:33:33;7.43;;;6.72;;
40955;SDS011;26687;48.254;11.454;2023-12-07T10:36:33;6.53;;;6.00;;
40955;SDS011;26687;48.254;11.454;2023-12-07T10:39:34;8.23;;;6.33;;
40955;SDS011;26687;48.254;11.454;2023-12-07T10:42:34;7.00;;;6.20;;
40955;SDS011;26687;48.254;11.454;2023-12-07T10:45:36;6.43;;;5.82;;
40955;SDS011;26687;48.254;11.454;2023-12-07T10:48:39;6.40;;;5.63;;
40955;SDS011;26687;48.254;11.454;2023-12-07T10:51:56;5.97;;;5.38;;
40955;SDS011;26687;48.254;11.454;2023-12-07T10:55:05;6.20;;;5.63;;
40955;SDS011;26687;48.254;11.454;2023-12-07T10:58:06;9.65;;;8.65;;
40955;SDS011;26687;48.254;11.454;2023-12-07T11:01:08;9.90;;;9.00;;
40955;SDS011;26687;48.254;11.454;2023-12-07T11:04:11;9.40;;;8.52;;
40955;SDS011;26687;48.254;11.454;2023-12-07T11:07:12;36.72;;;29.48;;
40955;SDS011;26687;48.254;11.454;2023-12-07T11:10:20;65.50;;;50.55;;
40955;SDS011;26687;48.254;11.454;2023-12-07T11:13:22;54.08;;;44.53;;
40955;SDS011;26687;48.254;11.454;2023-12-07T11:16:37;17.98;;;16.08;;
40955;SDS011;26687;48.254;11.454;2023-12-07T11:22:40;9.33;;;8.00;;
40955;SDS011;26687;48.254;11.454;2023-12-07T11:25:42;12.35;;;11.23;;
40955;SDS011;26687;48.254;11.454;2023-12-07T11:28:42;5.68;;;5.10;;
40955;SDS011;26687;48.254;11.454;2023-12-07T11:31:43;5.10;;;4.60;;
40955;SDS011;26687;48.254;11.454;2023-12-07T11:34:43;4.70;;;4.30;;
40955;SDS011;26687;48.254;11.454;2023-12-07T11:41:03;4.35;;;3.95;;
40955;SDS011;26687;48.254;11.454;2023-12-07T11:44:03;3.35;;;3.10;;
40955;SDS011;26687;48.254;11.454;2023-12-07T11:47:05;4.78;;;3.50;;
40955;SDS011;26687;48.254;11.454;2023-12-07T11:50:05;3.88;;;3.58;;
40955;SDS011;26687;48.254;11.454;2023-12-07T11:53:05;3.90;;;3.55;;
40955;SDS011;26687;48.254;11.454;2023-12-07T11:56:06;3.33;;;3.03;;
40955;SDS011;26687;48.254;11.454;2023-12-07T11:59:06;3.20;;;2.90;;
40955;SDS011;26687;48.254;11.454;2023-12-07T12:02:06;3.60;;;3.30;;
40955;SDS011;26687;48.254;11.454;2023-12-07T12:05:07;4.20;;;3.55;;
40955;SDS011;26687;48.254;11.454;2023-12-07T12:08:09;13.65;;;9.07;;
40955;SDS011;26687;48.254;11.454;2023-12-07T12:11:09;5.28;;;4.75;;
40955;SDS011;26687;48.254;11.454;2023-12-07T12:14:09;4.30;;;3.80;;
40955;SDS011;26687;48.254;11.454;2023-12-07T12:17:10;4.35;;;3.95;;
40955;SDS011;26687;48.254;11.454;2023-12-07T12:20:10;3.40;;;3.10;;
40955;SDS011;26687;48.254;11.454;2023-12-07T12:23:10;3.40;;;3.10;;
40955;SDS011;26687;48.254;11.454;2023-12-07T12:26:11;3.30;;;3.00;;
40955;SDS011;26687;48.254;11.454;2023-12-07T12:29:11;2.92;;;2.70;;
40955;SDS011;26687;48.254;11.454;2023-12-07T12:32:11;4.10;;;3.72;;
40955;SDS011;26687;48.254;11.454;2023-12-07T12:35:12;5.20;;;4.70;;
40955;SDS011;26687;48.254;11.454;2023-12-07T12:38:14;5.13;;;4.47;;
40955;SDS011;26687;48.254;11.454;2023-12-07T12:41:17;5.17;;;4.50;;
40955;SDS011;26687;48.254;11.454;2023-12-07T12:44:18;4.47;;;4.07;;
40955;SDS011;26687;48.254;11.454;2023-12-07T12:47:18;4.40;;;4.00;;
40955;SDS011;26687;48.254;11.454;2023-12-07T12:50:38;5.50;;;4.88;;
40955;SDS011;26687;48.254;11.454;2023-12-07T12:53:44;4.35;;;4.05;;
40955;SDS011;26687;48.254;11.454;2023-12-07T12:56:44;4.90;;;4.50;;
40955;SDS011;26687;48.254;11.454;2023-12-07T12:59:44;5.40;;;4.13;;
40955;SDS011;26687;48.254;11.454;2023-12-07T13:02:45;4.57;;;3.53;;
40955;SDS011;26687;48.254;11.454;2023-12-07T13:05:45;4.47;;;4.07;;
40955;SDS011;26687;48.254;11.454;2023-12-07T13:08:47;6.85;;;4.22;;
40955;SDS011;26687;48.254;11.454;2023-12-07T13:11:48;6.43;;;5.82;;
40955;SDS011;26687;48.254;11.454;2023-12-07T13:14:50;7.22;;;6.53;;
40955;SDS011;26687;48.254;11.454;2023-12-07T13:17:50;9.27;;;8.00;;
40955;SDS011;26687;48.254;11.454;2023-12-07T13:20:50;9.75;;;8.75;;
40955;SDS011;26687;48.254;11.454;2023-12-07T13:23:50;10.07;;;9.03;;
40955;SDS011;26687;48.254;11.454;2023-12-07T13:26:51;10.23;;;9.13;;
40955;SDS011;26687;48.254;11.454;2023-12-07T13:29:51;11.53;;;10.33;;
40955;SDS011;26687;48.254;11.454;2023-12-07T13:32:51;12.65;;;9.77;;
40955;SDS011;26687;48.254;11.454;2023-12-07T13:35:51;11.98;;;10.65;;
40955;SDS011;26687;48.254;11.454;2023-12-07T13:38:55;12.13;;;11.02;;
40955;SDS011;26687;48.254;11.454;2023-12-07T13:41:55;11.57;;;10.48;;
40955;SDS011;26687;48.254;11.454;2023-12-07T13:44:56;11.83;;;10.70;;
40955;SDS011;26687;48.254;11.454;2023-12-07T13:47:57;12.18;;;11.07;;
40955;SDS011;26687;48.254;11.454;2023-12-07T13:50:58;13.00;;;11.23;;
40955;SDS011;26687;48.254;11.454;2023-12-07T13:53:58;12.23;;;11.02;;
40955;SDS011;26687;48.254;11.454;2023-12-07T13:56:59;12.45;;;11.25;;
40955;SDS011;26687;48.254;11.454;2023-12-07T13:59:59;12.40;;;11.02;;
40955;SDS011;26687;48.254;11.454;2023-12-07T14:02:59;12.27;;;11.00;;
40955;SDS011;26687;48.254;11.454;2023-12-07T14:05:59;12.43;;;10.37;;
40955;SDS011;26687;48.254;11.454;2023-12-07T14:08:59;11.70;;;10.55;;
40955;SDS011;26687;48.254;11.454;2023-12-07T14:12:00;12.00;;;10.25;;
40955;SDS011;26687;48.254;11.454;2023-12-07T14:15:00;11.23;;;10.13;;
40955;SDS011;26687;48.254;11.454;2023-12-07T14:18:01;12.02;;;10.82;;
40955;SDS011;26687;48.254;11.454;2023-12-07T14:21:01;11.43;;;10.23;;
40955;SDS011;26687;48.254;11.454;2023-12-07T14:24:01;12.00;;;10.80;;
40955;SDS011;26687;48.254;11.454;2023-12-07T14:27:01;11.33;;;10.33;;
40955;SDS011;26687;48.254;11.454;2023-12-07T14:30:02;14.13;;;10.83;;
40955;SDS011;26687;48.254;11.454;2023-12-07T14:33:02;11.93;;;10.80;;
40955;SDS011;26687;48.254;11.454;2023-12-07T14:36:02;12.30;;;11.10;;
40955;SDS011;26687;48.254;11.454;2023-12-07T14:39:04;11.63;;;10.52;;
40955;SDS011;26687;48.254;11.454;2023-12-07T14:42:06;11.27;;;10.20;;
40955;SDS011;26687;48.254;11.454;2023-12-07T14:45:06;11.33;;;10.23;;
40955;SDS011;26687;48.254;11.454;2023-12-07T14:48:07;12.45;;;11.25;;
40955;SDS011;26687;48.254;11.454;2023-12-07T14:51:07;10.63;;;9.63;;
40955;SDS011;26687;48.254;11.454;2023-12-07T14:54:07;11.20;;;10.20;;
40955;SDS011;26687;48.254;11.454;2023-12-07T14:57:09;10.15;;;9.25;;
40955;SDS011;26687;48.254;11.454;2023-12-07T15:00:10;10.48;;;9.40;;
40955;SDS011;26687;48.254;11.454;2023-12-07T15:03:10;11.15;;;10.02;;
40955;SDS011;26687;48.254;11.454;2023-12-07T15:06:10;11.27;;;10.17;;
40955;SDS011;26687;48.254;11.454;2023-12-07T15:09:11;10.32;;;9.32;;
40955;SDS011;26687;48.254;11.454;2023-12-07T15:12:11;10.63;;;9.60;;
40955;SDS011;26687;48.254;11.454;2023-12-07T15:15:11;11.27;;;10.18;;
40955;SDS011;26687;48.254;11.454;2023-12-07T15:18:11;11.52;;;10.45;;
40955;SDS011;26687;48.254;11.454;2023-12-07T15:21:12;12.60;;;11.30;;
40955;SDS011;26687;48.254;11.454;2023-12-07T15:24:15;13.18;;;11.40;;
40955;SDS011;26687;48.254;11.454;2023-12-07T15:27:18;12.45;;;11.25;;
40955;SDS011;26687;48.254;11.454;2023-12-07T15:30:18;12.35;;;11.15;;
40955;SDS011;26687;48.254;11.454;2023-12-07T15:33:19;12.18;;;11.07;;
40955;SDS011;26687;48.254;11.454;2023-12-07T15:36:19;12.40;;;11.20;;
40955;SDS011;26687;48.254;11.454;2023-12-07T15:39:19;12.67;;;11.23;;
40955;SDS011;26687;48.254;11.454;2023-12-07T15:42:19;12.73;;;11.45;;
40955;SDS011;26687;48.254;11.454;2023-12-07T15:45:20;12.15;;;10.98;;
40955;SDS011;26687;48.254;11.454;2023-12-07T15:48:20;12.65;;;11.45;;
40955;SDS011;26687;48.254;11.454;2023-12-07T15:51:20;10.93;;;9.93;;
40955;SDS011;26687;48.254;11.454;2023-12-07T15:54:20;12.73;;;11.43;;
40955;SDS011;26687;48.254;11.454;2023-12-07T15:57:20;12.13;;;11.03;;
40955;SDS011;26687;48.254;11.454;2023-12-07T16:00:21;13.23;;;12.00;;
40955;SDS011;26687;48.254;11.454;2023-12-07T16:03:21;13.45;;;12.05;;
40955;SDS011;26687;48.254;11.454;2023-12-07T16:06:21;13.18;;;11.60;;
40955;SDS011;26687;48.254;11.454;2023-12-07T16:09:22;14.63;;;12.48;;
40955;SDS011;26687;48.254;11.454;2023-12-07T16:12:22;15.57;;;14.07;;
40955;SDS011;26687;48.254;11.454;2023-12-07T16:15:22;15.02;;;13.43;;
40955;SDS011;26687;48.254;11.454;2023-12-07T16:18:22;15.00;;;13.40;;
40955;SDS011;26687;48.254;11.454;2023-12-07T16:21:23;14.45;;;13.05;;
40955;SDS011;26687;48.254;11.454;2023-12-07T16:24:24;13.90;;;12.43;;
40955;SDS011;26687;48.254;11.454;2023-12-07T16:27:25;13.63;;;12.23;;
40955;SDS011;26687;48.254;11.454;2023-12-07T16:30:25;12.88;;;11.57;;
40955;SDS011;26687;48.254;11.454;2023-12-07T16:33:25;13.27;;;11.98;;
40955;SDS011;26687;48.254;11.454;2023-12-07T16:36:25;13.02;;;11.38;;
40955;SDS011;26687;48.254;11.454;2023-12-07T16:39:25;12.00;;;10.23;;
40955;SDS011;26687;48.254;11.454;2023-12-07T16:42:25;13.33;;;11.17;;
40955;SDS011;26687;48.254;11.454;2023-12-07T16:45:26;11.90;;;10.80;;
40955;SDS011;26687;48.254;11.454;2023-12-07T16:48:26;11.88;;;10.68;;
40955;SDS011;26687;48.254;11.454;2023-12-07T16:51:26;11.93;;;10.52;;
40955;SDS011;26687;48.254;11.454;2023-12-07T16:54:26;12.15;;;10.95;;
40955;SDS011;26687;48.254;11.454;2023-12-07T16:57:27;11.65;;;10.45;;
40955;SDS011;26687;48.254;11.454;2023-12-07T17:00:27;11.55;;;10.43;;
40955;SDS011;26687;48.254;11.454;2023-12-07T17:03:27;11.35;;;10.25;;
40955;SDS011;26687;48.254;11.454;2023-12-07T17:06:27;11.18;;;10.07;;
40955;SDS011;26687;48.254;11.454;2023-12-07T17:09:28;11.27;;;10.23;;
40955;SDS011;26687;48.254;11.454;2023-12-07T17:12:28;16.25;;;10.82;;
40955;SDS011;26687;48.254;11.454;2023-12-07T17:15:28;11.27;;;10.10;;
40955;SDS011;26687;48.254;11.454;2023-12-07T17:18:28;11.38;;;10.23;;
40955;SDS011;26687;48.254;11.454;2023-12-07T17:21:28;11.38;;;10.27;;
40955;SDS011;26687;48.254;11.454;2023-12-07T17:24:29;11.18;;;10.07;;
40955;SDS011;26687;48.254;11.454;2023-12-07T17:27:29;12.63;;;9.85;;
40955;SDS011;26687;48.254;11.454;2023-12-07T17:30:30;13.05;;;11.02;;
40955;SDS011;26687;48.254;11.454;2023-12-07T17:33:30;11.20;;;9.95;;
40955;SDS011;26687;48.254;11.454;2023-12-07T17:36:30;10.97;;;9.87;;
40955;SDS011;26687;48.254;11.454;2023-12-07T17:39:30;11.67;;;10.47;;
40955;SDS011;26687;48.254;11.454;2023-12-07T17:42:34;10.95;;;9.85;;